sensor_id;sensor_type;location;lat;lon;timestamp;temperature;humidity
20750;DHT22;10535;50.664;4.564;2023-10-13T11:54:39;23.80;99.90
20750;DHT22;10535;50.664;4.564;2023-10-13T11:57:08;23.70;99.90
20750;DHT22;10535;50.664;4.564;2023-10-13T11:59:33;24.20;99.90
20750;DHT22;10535;50.664;4.564;2023-10-13T12:02:06;24.80;99.90
20750;DHT22;10535;50.664;4.564;2023-10-13T12:05:12;25.30;99.90
20750;DHT22;10535;50.664;4.564;2023-10-13T12:07:38;25.60;99.90
20750;DHT22;10535;50.664;4.564;2023-10-13T12:10:17;25.60;99.90
20750;DHT22;10535;50.664;4.564;2023-10-13T12:13:16;25.60;99.90
20750;DHT22;10535;50.664;4.564;2023-10-13T12:15:42;25.30;99.90
20750;DHT22;10535;50.664;4.564;2023-10-13T12:18:15;25.10;99.90
20750;DHT22;10535;50.664;4.564;2023-10-13T12:20:40;24.90;99.90
20750;DHT22;10535;50.664;4.564;2023-10-13T12:23:14;24.90;99.90
20750;DHT22;10535;50.664;4.564;2023-10-13T12:25:46;24.90;99.90
20750;DHT22;10535;50.664;4.564;2023-10-13T12:28:25;24.90;99.90
20750;DHT22;10535;50.664;4.564;2023-10-13T12:30:56;24.80;99.90
20750;DHT22;10535;50.664;4.564;2023-10-13T12:33:29;24.80;99.90
20750;DHT22;10535;50.664;4.564;2023-10-13T12:36:07;24.90;99.90
20750;DHT22;10535;50.664;4.564;2023-10-13T12:38:41;24.70;99.90
20750;DHT22;10535;50.664;4.564;2023-10-13T12:41:19;24.50;99.90
20750;DHT22;10535;50.664;4.564;2023-10-13T12:44:05;24.20;99.90
20750;DHT22;10535;50.664;4.564;2023-10-13T12:46:51;24.20;99.90
20750;DHT22;10535;50.664;4.564;2023-10-13T12:49:36;24.00;99.90
20750;DHT22;10535;50.664;4.564;2023-10-13T12:52:08;24.20;99.90
20750;DHT22;10535;50.664;4.564;2023-10-13T12:54:51;24.00;99.90
20750;DHT22;10535;50.664;4.564;2023-10-13T12:57:29;23.80;99.90
20750;DHT22;10535;50.664;4.564;2023-10-13T12:59:56;23.60;99.90
20750;DHT22;10535;50.664;4.564;2023-10-13T13:02:22;23.70;99.90
20750;DHT22;10535;50.664;4.564;2023-10-13T13:04:53;23.60;99.90
20750;DHT22;10535;50.664;4.564;2023-10-13T13:07:27;23.50;99.90
20750;DHT22;10535;50.664;4.564;2023-10-13T13:09:55;23.50;99.90
20750;DHT22;10535;50.664;4.564;2023-10-13T13:12:24;23.40;99.90
20750;DHT22;10535;50.664;4.564;2023-10-13T13:14:50;23.50;99.90
20750;DHT22;10535;50.664;4.564;2023-10-13T13:17:21;23.40;99.90
20750;DHT22;10535;50.664;4.564;2023-10-13T13:19:46;23.40;99.90
20750;DHT22;10535;50.664;4.564;2023-10-13T13:22:12;23.40;99.90
20750;DHT22;10535;50.664;4.564;2023-10-13T13:24:42;23.40;99.90
20750;DHT22;10535;50.664;4.564;2023-10-13T13:27:16;23.40;99.90
20750;DHT22;10535;50.664;4.564;2023-10-13T13:29:47;23.50;99.90
20750;DHT22;10535;50.664;4.564;2023-10-13T13:32:13;23.50;99.90
20750;DHT22;10535;50.664;4.564;2023-10-13T13:34:52;23.60;99.90
20750;DHT22;10535;50.664;4.564;2023-10-13T13:37:34;23.40;99.90
20750;DHT22;10535;50.664;4.564;2023-10-13T13:40:00;23.40;99.90
20750;DHT22;10535;50.664;4.564;2023-10-13T13:42:41;23.60;99.90
20750;DHT22;10535;50.664;4.564;2023-10-13T13:45:15;23.60;99.90
20750;DHT22;10535;50.664;4.564;2023-10-13T13:47:49;23.60;99.90
20750;DHT22;10535;50.664;4.564;2023-10-13T13:50:21;23.60;99.90
20750;DHT22;10535;50.664;4.564;2023-10-13T13:52:56;23.60;99.90
20750;DHT22;10535;50.664;4.564;2023-10-13T13:55:25;23.60;99.90
20750;DHT22;10535;50.664;4.564;2023-10-13T13:57:57;23.60;99.90
20750;DHT22;10535;50.664;4.564;2023-10-13T14:00:23;23.60;99.90
20750;DHT22;10535;50.664;4.564;2023-10-13T14:03:10;23.60;99.90
20750;DHT22;10535;50.664;4.564;2023-10-13T14:05:44;23.60;99.90
20750;DHT22;10535;50.664;4.564;2023-10-13T14:08:10;23.80;99.90
20750;DHT22;10535;50.664;4.564;2023-10-13T14:10:40;24.00;99.90
20750;DHT22;10535;50.664;4.564;2023-10-13T14:13:25;24.00;99.90
20750;DHT22;10535;50.664;4.564;2023-10-13T14:16:09;23.90;99.90
20750;DHT22;10535;50.664;4.564;2023-10-13T14:18:45;23.90;99.90
20750;DHT22;10535;50.664;4.564;2023-10-13T14:21:11;24.00;99.90
20750;DHT22;10535;50.664;4.564;2023-10-13T14:23:43;23.90;99.90
20750;DHT22;10535;50.664;4.564;2023-10-13T14:26:15;23.90;99.90
20750;DHT22;10535;50.664;4.564;2023-10-13T14:28:45;23.90;99.90
20750;DHT22;10535;50.664;4.564;2023-10-13T14:31:34;23.80;99.90
20750;DHT22;10535;50.664;4.564;2023-10-13T14:34:04;23.90;99.90
20750;DHT22;10535;50.664;4.564;2023-10-13T14:36:30;23.90;99.90
20750;DHT22;10535;50.664;4.564;2023-10-13T14:39:00;23.80;99.90
20750;DHT22;10535;50.664;4.564;2023-10-13T14:41:26;23.60;99.90
20750;DHT22;10535;50.664;4.564;2023-10-13T14:43:52;23.60;99.90
20750;DHT22;10535;50.664;4.564;2023-10-13T14:46:19;23.50;99.90
20750;DHT22;10535;50.664;4.564;2023-10-13T14:48:54;23.40;99.90
20750;DHT22;10535;50.664;4.564;2023-10-13T14:51:20;23.40;99.90
20750;DHT22;10535;50.664;4.564;2023-10-13T14:53:47;23.40;99.90
20750;DHT22;10535;50.664;4.564;2023-10-13T14:56:14;23.50;99.90
20750;DHT22;10535;50.664;4.564;2023-10-13T14:58:40;23.30;99.90
20750;DHT22;10535;50.664;4.564;2023-10-13T15:01:14;23.20;99.90
20750;DHT22;10535;50.664;4.564;2023-10-13T15:03:44;23.30;99.90
20750;DHT22;10535;50.664;4.564;2023-10-13T15:06:16;23.20;99.90
20750;DHT22;10535;50.664;4.564;2023-10-13T15:09:01;23.10;99.90
20750;DHT22;10535;50.664;4.564;2023-10-13T15:11:27;22.80;99.90
20750;DHT22;10535;50.664;4.564;2023-10-13T15:14:04;22.80;99.90
20750;DHT22;10535;50.664;4.564;2023-10-13T15:16:33;22.80;99.90
20750;DHT22;10535;50.664;4.564;2023-10-13T15:19:02;22.60;99.90
20750;DHT22;10535;50.664;4.564;2023-10-13T15:21:32;22.40;99.90
20750;DHT22;10535;50.664;4.564;2023-10-13T15:24:01;22.30;99.90
20750;DHT22;10535;50.664;4.564;2023-10-13T15:26:39;22.10;99.90
20750;DHT22;10535;50.664;4.564;2023-10-13T15:29:07;22.00;99.90
20750;DHT22;10535;50.664;4.564;2023-10-13T15:31:41;21.70;99.90
20750;DHT22;10535;50.664;4.564;2023-10-13T15:34:12;21.70;99.90
20750;DHT22;10535;50.664;4.564;2023-10-13T15:36:42;21.60;99.90
20750;DHT22;10535;50.664;4.564;2023-10-13T15:39:11;21.60;99.90
20750;DHT22;10535;50.664;4.564;2023-10-13T15:41:37;21.40;99.90
20750;DHT22;10535;50.664;4.564;2023-10-13T15:44:11;21.50;99.90
20750;DHT22;10535;50.664;4.564;2023-10-13T15:46:39;21.50;99.90
20750;DHT22;10535;50.664;4.564;2023-10-13T15:49:05;21.30;99.90
20750;DHT22;10535;50.664;4.564;2023-10-13T15:51:34;21.40;99.90
20750;DHT22;10535;50.664;4.564;2023-10-13T15:54:02;21.30;99.90
20750;DHT22;10535;50.664;4.564;2023-10-13T15:56:29;21.20;99.90
20750;DHT22;10535;50.664;4.564;2023-10-13T15:59:01;21.20;99.90
20750;DHT22;10535;50.664;4.564;2023-10-13T16:01:27;21.20;99.90
20750;DHT22;10535;50.664;4.564;2023-10-13T16:03:54;21.20;99.90
20750;DHT22;10535;50.664;4.564;2023-10-13T16:06:20;21.20;99.90
20750;DHT22;10535;50.664;4.564;2023-10-13T16:08:51;21.20;99.90
20750;DHT22;10535;50.664;4.564;2023-10-13T16:11:17;21.10;99.90
20750;DHT22;10535;50.664;4.564;2023-10-13T16:13:47;21.00;99.90
20750;DHT22;10535;50.664;4.564;2023-10-13T16:16:21;21.00;99.90
20750;DHT22;10535;50.664;4.564;2023-10-13T16:18:53;21.10;99.90
20750;DHT22;10535;50.664;4.564;2023-10-13T16:21:19;20.90;99.90
20750;DHT22;10535;50.664;4.564;2023-10-13T16:23:47;20.80;99.90
20750;DHT22;10535;50.664;4.564;2023-10-13T16:26:17;20.70;99.90
20750;DHT22;10535;50.664;4.564;2023-10-13T16:28:52;20.70;99.90
20750;DHT22;10535;50.664;4.564;2023-10-13T16:31:20;20.70;99.90
20750;DHT22;10535;50.664;4.564;2023-10-13T16:33:49;20.70;99.90
20750;DHT22;10535;50.664;4.564;2023-10-13T16:36:14;20.60;99.90
20750;DHT22;10535;50.664;4.564;2023-10-13T16:38:40;20.70;99.90
20750;DHT22;10535;50.664;4.564;2023-10-13T16:41:07;20.70;99.90
20750;DHT22;10535;50.664;4.564;2023-10-13T16:43:38;20.60;99.90
20750;DHT22;10535;50.664;4.564;2023-10-13T16:46:09;20.70;99.90
20750;DHT22;10535;50.664;4.564;2023-10-13T16:48:37;20.70;99.90
20750;DHT22;10535;50.664;4.564;2023-10-13T16:51:03;20.80;99.90
20750;DHT22;10535;50.664;4.564;2023-10-13T16:53:31;20.80;99.90
20750;DHT22;10535;50.664;4.564;2023-10-13T16:56:00;20.90;99.90
20750;DHT22;10535;50.664;4.564;2023-10-13T16:58:27;20.90;99.90
20750;DHT22;10535;50.664;4.564;2023-10-13T17:00:53;20.80;99.90
20750;DHT22;10535;50.664;4.564;2023-10-13T17:03:19;20.80;99.90
20750;DHT22;10535;50.664;4.564;2023-10-13T17:05:56;21.00;99.90
20750;DHT22;10535;50.664;4.564;2023-10-13T17:08:23;20.90;99.90
20750;DHT22;10535;50.664;4.564;2023-10-13T17:10:49;21.00;99.90
20750;DHT22;10535;50.664;4.564;2023-10-13T17:13:16;20.90;99.90
20750;DHT22;10535;50.664;4.564;2023-10-13T17:15:42;20.90;99.90
20750;DHT22;10535;50.664;4.564;2023-10-13T17:18:08;20.90;99.90
20750;DHT22;10535;50.664;4.564;2023-10-13T17:20:40;20.80;99.90
20750;DHT22;10535;50.664;4.564;2023-10-13T17:23:07;20.80;99.90
20750;DHT22;10535;50.664;4.564;2023-10-13T17:25:34;20.80;99.90
20750;DHT22;10535;50.664;4.564;2023-10-13T17:28:00;20.80;99.90
20750;DHT22;10535;50.664;4.564;2023-10-13T17:30:30;20.70;99.90
20750;DHT22;10535;50.664;4.564;2023-10-13T17:32:55;20.60;99.90
20750;DHT22;10535;50.664;4.564;2023-10-13T17:35:21;20.60;99.90
20750;DHT22;10535;50.664;4.564;2023-10-13T17:37:47;20.70;99.90
20750;DHT22;10535;50.664;4.564;2023-10-13T17:40:13;20.60;99.90
20750;DHT22;10535;50.664;4.564;2023-10-13T17:42:45;20.60;99.90
20750;DHT22;10535;50.664;4.564;2023-10-13T17:45:17;20.50;99.90
20750;DHT22;10535;50.664;4.564;2023-10-13T17:47:43;20.60;99.90
20750;DHT22;10535;50.664;4.564;2023-10-13T17:50:09;20.50;99.90
20750;DHT22;10535;50.664;4.564;2023-10-13T17:52:39;20.60;99.90
20750;DHT22;10535;50.664;4.564;2023-10-13T17:55:08;20.50;99.90
20750;DHT22;10535;50.664;4.564;2023-10-13T17:57:36;20.50;99.90
20750;DHT22;10535;50.664;4.564;2023-10-13T18:00:03;20.40;99.90
20750;DHT22;10535;50.664;4.564;2023-10-13T18:02:39;20.60;99.90
20750;DHT22;10535;50.664;4.564;2023-10-13T18:05:11;20.60;99.90
20750;DHT22;10535;50.664;4.564;2023-10-13T18:07:40;20.60;99.90
20750;DHT22;10535;50.664;4.564;2023-10-13T18:10:09;20.50;99.90
20750;DHT22;10535;50.664;4.564;2023-10-13T18:12:38;20.60;99.90
20750;DHT22;10535;50.664;4.564;2023-10-13T18:15:08;20.60;99.90
20750;DHT22;10535;50.664;4.564;2023-10-13T18:17:46;20.60;99.90
20750;DHT22;10535;50.664;4.564;2023-10-13T18:20:12;20.60;99.90
20750;DHT22;10535;50.664;4.564;2023-10-13T18:22:41;20.60;99.90
20750;DHT22;10535;50.664;4.564;2023-10-13T18:25:07;20.60;99.90
20750;DHT22;10535;50.664;4.564;2023-10-13T18:27:40;20.70;99.90
20750;DHT22;10535;50.664;4.564;2023-10-13T18:30:13;20.60;99.90
20750;DHT22;10535;50.664;4.564;2023-10-13T18:32:43;20.70;99.90
20750;DHT22;10535;50.664;4.564;2023-10-13T18:35:11;20.70;99.90
20750;DHT22;10535;50.664;4.564;2023-10-13T18:37:38;20.60;99.90
20750;DHT22;10535;50.664;4.564;2023-10-13T18:40:04;20.60;99.90
20750;DHT22;10535;50.664;4.564;2023-10-13T18:42:32;20.40;99.90
20750;DHT22;10535;50.664;4.564;2023-10-13T18:44:58;20.20;99.90
20750;DHT22;10535;50.664;4.564;2023-10-13T18:47:23;20.10;99.90
20750;DHT22;10535;50.664;4.564;2023-10-13T18:49:50;19.90;99.90
20750;DHT22;10535;50.664;4.564;2023-10-13T18:52:15;19.70;99.90
20750;DHT22;10535;50.664;4.564;2023-10-13T18:54:42;19.60;99.90
20750;DHT22;10535;50.664;4.564;2023-10-13T18:57:08;19.60;99.90
20750;DHT22;10535;50.664;4.564;2023-10-13T18:59:33;19.40;99.90
20750;DHT22;10535;50.664;4.564;2023-10-13T19:01:59;19.30;99.90
20750;DHT22;10535;50.664;4.564;2023-10-13T19:04:26;19.30;99.90
20750;DHT22;10535;50.664;4.564;2023-10-13T19:06:53;19.30;99.90
20750;DHT22;10535;50.664;4.564;2023-10-13T19:09:18;19.30;99.90
20750;DHT22;10535;50.664;4.564;2023-10-13T19:11:50;19.30;99.90
20750;DHT22;10535;50.664;4.564;2023-10-13T19:14:16;19.30;99.90
20750;DHT22;10535;50.664;4.564;2023-10-13T19:16:42;19.20;99.90
20750;DHT22;10535;50.664;4.564;2023-10-13T19:19:11;19.30;99.90
20750;DHT22;10535;50.664;4.564;2023-10-13T19:21:37;19.30;99.90
20750;DHT22;10535;50.664;4.564;2023-10-13T19:24:03;19.30;99.90
20750;DHT22;10535;50.664;4.564;2023-10-13T19:26:30;19.30;99.90
20750;DHT22;10535;50.664;4.564;2023-10-13T19:28:57;19.50;99.90
20750;DHT22;10535;50.664;4.564;2023-10-13T19:31:24;19.40;99.90
20750;DHT22;10535;50.664;4.564;2023-10-13T19:33:52;19.40;99.90
20750;DHT22;10535;50.664;4.564;2023-10-13T19:36:18;19.40;99.90
20750;DHT22;10535;50.664;4.564;2023-10-13T19:38:48;19.50;99.90
20750;DHT22;10535;50.664;4.564;2023-10-13T19:41:21;19.40;99.90
20750;DHT22;10535;50.664;4.564;2023-10-13T19:43:54;19.50;99.90
20750;DHT22;10535;50.664;4.564;2023-10-13T19:46:26;19.40;99.90
20750;DHT22;10535;50.664;4.564;2023-10-13T19:48:52;19.40;99.90
20750;DHT22;10535;50.664;4.564;2023-10-13T19:51:18;19.40;99.90
20750;DHT22;10535;50.664;4.564;2023-10-13T19:53:52;19.30;99.90
20750;DHT22;10535;50.664;4.564;2023-10-13T19:56:19;19.30;99.90
20750;DHT22;10535;50.664;4.564;2023-10-13T19:58:46;19.20;99.90
20750;DHT22;10535;50.664;4.564;2023-10-13T20:01:24;19.10;99.90
20750;DHT22;10535;50.664;4.564;2023-10-13T20:03:53;19.10;99.90
20750;DHT22;10535;50.664;4.564;2023-10-13T20:06:21;19.20;99.90
20750;DHT22;10535;50.664;4.564;2023-10-13T20:08:49;19.20;99.90
20750;DHT22;10535;50.664;4.564;2023-10-13T20:11:19;19.20;99.90
20750;DHT22;10535;50.664;4.564;2023-10-13T20:13:46;19.30;99.90
20750;DHT22;10535;50.664;4.564;2023-10-13T20:16:16;19.30;99.90
20750;DHT22;10535;50.664;4.564;2023-10-13T20:18:55;19.40;99.90
20750;DHT22;10535;50.664;4.564;2023-10-13T20:21:23;19.40;99.90
20750;DHT22;10535;50.664;4.564;2023-10-13T20:23:54;19.50;99.90
20750;DHT22;10535;50.664;4.564;2023-10-13T20:26:21;19.50;99.90
20750;DHT22;10535;50.664;4.564;2023-10-13T20:28:46;19.60;99.90
20750;DHT22;10535;50.664;4.564;2023-10-13T20:31:12;19.60;99.90
20750;DHT22;10535;50.664;4.564;2023-10-13T20:33:38;19.70;99.90
20750;DHT22;10535;50.664;4.564;2023-10-13T20:36:05;19.70;99.90
20750;DHT22;10535;50.664;4.564;2023-10-13T20:38:31;19.70;99.90
20750;DHT22;10535;50.664;4.564;2023-10-13T20:41:01;19.70;99.90
20750;DHT22;10535;50.664;4.564;2023-10-13T20:43:29;19.80;99.90
20750;DHT22;10535;50.664;4.564;2023-10-13T20:45:56;19.80;99.90
20750;DHT22;10535;50.664;4.564;2023-10-13T20:48:25;19.80;99.90
20750;DHT22;10535;50.664;4.564;2023-10-13T20:50:57;19.80;99.90
20750;DHT22;10535;50.664;4.564;2023-10-13T20:53:25;20.00;99.90
20750;DHT22;10535;50.664;4.564;2023-10-13T20:56:00;20.00;99.90
20750;DHT22;10535;50.664;4.564;2023-10-13T20:58:29;19.90;99.90
20750;DHT22;10535;50.664;4.564;2023-10-13T21:00:57;19.90;99.90
20750;DHT22;10535;50.664;4.564;2023-10-13T21:03:24;19.90;99.90
20750;DHT22;10535;50.664;4.564;2023-10-13T21:05:51;19.90;99.90
20750;DHT22;10535;50.664;4.564;2023-10-13T21:08:20;19.80;99.90
20750;DHT22;10535;50.664;4.564;2023-10-13T21:10:47;19.80;99.90
20750;DHT22;10535;50.664;4.564;2023-10-13T21:13:14;19.90;99.90
20750;DHT22;10535;50.664;4.564;2023-10-13T21:15:39;19.90;99.90
20750;DHT22;10535;50.664;4.564;2023-10-13T21:18:05;20.00;99.90
20750;DHT22;10535;50.664;4.564;2023-10-13T21:20:33;20.10;99.90
20750;DHT22;10535;50.664;4.564;2023-10-13T21:22:59;20.10;99.90
20750;DHT22;10535;50.664;4.564;2023-10-13T21:25:26;20.20;99.90
20750;DHT22;10535;50.664;4.564;2023-10-13T21:30:18;20.20;99.90
20750;DHT22;10535;50.664;4.564;2023-10-13T21:32:46;20.20;99.90
20750;DHT22;10535;50.664;4.564;2023-10-13T21:35:15;20.20;99.90
20750;DHT22;10535;50.664;4.564;2023-10-13T21:37:43;20.20;99.90
20750;DHT22;10535;50.664;4.564;2023-10-13T21:40:10;20.10;99.90
20750;DHT22;10535;50.664;4.564;2023-10-13T21:42:43;20.00;99.90
20750;DHT22;10535;50.664;4.564;2023-10-13T21:45:09;20.10;99.90
20750;DHT22;10535;50.664;4.564;2023-10-13T21:47:35;20.00;99.90
20750;DHT22;10535;50.664;4.564;2023-10-13T21:50:01;20.00;99.90
20750;DHT22;10535;50.664;4.564;2023-10-13T21:52:28;19.90;99.90
20750;DHT22;10535;50.664;4.564;2023-10-13T21:54:54;20.00;99.90
20750;DHT22;10535;50.664;4.564;2023-10-13T21:57:19;20.10;99.90
20750;DHT22;10535;50.664;4.564;2023-10-13T21:59:45;20.00;99.90
20750;DHT22;10535;50.664;4.564;2023-10-13T22:02:11;20.10;99.90
20750;DHT22;10535;50.664;4.564;2023-10-13T22:04:36;20.00;99.90
20750;DHT22;10535;50.664;4.564;2023-10-13T22:07:02;19.90;99.90
20750;DHT22;10535;50.664;4.564;2023-10-13T22:09:29;19.80;99.90
20750;DHT22;10535;50.664;4.564;2023-10-13T22:11:54;19.90;99.90
20750;DHT22;10535;50.664;4.564;2023-10-13T22:14:21;19.90;99.90
20750;DHT22;10535;50.664;4.564;2023-10-13T22:16:50;19.90;99.90
20750;DHT22;10535;50.664;4.564;2023-10-13T22:19:17;20.00;99.90
20750;DHT22;10535;50.664;4.564;2023-10-13T22:21:45;20.00;99.90
20750;DHT22;10535;50.664;4.564;2023-10-13T22:24:13;19.90;99.90
20750;DHT22;10535;50.664;4.564;2023-10-13T22:26:40;19.90;99.90
20750;DHT22;10535;50.664;4.564;2023-10-13T22:29:09;20.00;99.90
20750;DHT22;10535;50.664;4.564;2023-10-13T22:31:35;19.90;99.90
20750;DHT22;10535;50.664;4.564;2023-10-13T22:34:01;20.00;99.90
20750;DHT22;10535;50.664;4.564;2023-10-13T22:36:30;20.00;99.90
20750;DHT22;10535;50.664;4.564;2023-10-13T22:38:58;20.10;99.90
20750;DHT22;10535;50.664;4.564;2023-10-13T22:41:25;20.00;99.90
20750;DHT22;10535;50.664;4.564;2023-10-13T22:43:52;20.00;99.90
20750;DHT22;10535;50.664;4.564;2023-10-13T22:46:18;20.00;99.90
20750;DHT22;10535;50.664;4.564;2023-10-13T22:48:45;19.90;99.90
20750;DHT22;10535;50.664;4.564;2023-10-13T22:51:11;19.90;99.90
20750;DHT22;10535;50.664;4.564;2023-10-13T22:53:36;19.90;99.90
20750;DHT22;10535;50.664;4.564;2023-10-13T22:56:02;19.90;99.90
20750;DHT22;10535;50.664;4.564;2023-10-13T22:58:28;19.80;99.90
20750;DHT22;10535;50.664;4.564;2023-10-13T23:00:54;19.80;99.90
20750;DHT22;10535;50.664;4.564;2023-10-13T23:03:22;19.90;99.90
20750;DHT22;10535;50.664;4.564;2023-10-13T23:05:48;19.90;99.90
20750;DHT22;10535;50.664;4.564;2023-10-13T23:08:25;19.80;99.90
20750;DHT22;10535;50.664;4.564;2023-10-13T23:13:46;19.80;99.90
20750;DHT22;10535;50.664;4.564;2023-10-13T23:16:20;19.80;99.90
20750;DHT22;10535;50.664;4.564;2023-10-13T23:18:50;20.00;99.90
20750;DHT22;10535;50.664;4.564;2023-10-13T23:21:16;20.00;99.90
20750;DHT22;10535;50.664;4.564;2023-10-13T23:23:42;20.00;99.90
20750;DHT22;10535;50.664;4.564;2023-10-13T23:26:14;20.00;99.90
20750;DHT22;10535;50.664;4.564;2023-10-13T23:28:45;19.90;99.90
20750;DHT22;10535;50.664;4.564;2023-10-13T23:31:25;19.70;99.90
20750;DHT22;10535;50.664;4.564;2023-10-13T23:33:52;19.30;99.90
20750;DHT22;10535;50.664;4.564;2023-10-13T23:36:20;18.70;99.90
20750;DHT22;10535;50.664;4.564;2023-10-13T23:38:46;18.30;99.90
20750;DHT22;10535;50.664;4.564;2023-10-13T23:41:20;18.10;99.90
20750;DHT22;10535;50.664;4.564;2023-10-13T23:43:49;17.90;99.90
20750;DHT22;10535;50.664;4.564;2023-10-13T23:46:21;17.80;99.90
20750;DHT22;10535;50.664;4.564;2023-10-13T23:48:47;17.60;99.90
20750;DHT22;10535;50.664;4.564;2023-10-13T23:51:14;17.60;99.90
20750;DHT22;10535;50.664;4.564;2023-10-13T23:53:47;17.60;99.90
20750;DHT22;10535;50.664;4.564;2023-10-13T23:56:13;17.80;99.90
20750;DHT22;10535;50.664;4.564;2023-10-13T23:58:54;17.60;99.90
